createdAt,value
2018-05-13T00:01:04.713Z,97982
2018-05-13T00:03:32.777Z,97979
2018-05-13T00:06:01.265Z,97971
2018-05-13T00:08:29.312Z,97965
2018-05-13T00:10:57.408Z,97983
2018-05-13T00:13:26.249Z,97993
2018-05-13T00:15:54.317Z,97995
2018-05-13T00:18:22.389Z,97990
2018-05-13T00:20:50.461Z,97994
2018-05-13T00:23:18.565Z,98002
2018-05-13T00:25:46.641Z,98006
2018-05-13T00:28:15.943Z,98001
2018-05-13T00:30:44.010Z,98007
2018-05-13T00:33:12.057Z,98012
2018-05-13T00:35:40.153Z,97999
2018-05-13T00:38:08.200Z,97988
2018-05-13T00:40:36.476Z,97985
2018-05-13T00:43:04.659Z,97992
2018-05-13T00:45:32.643Z,97996
2018-05-13T00:48:00.733Z,97998
2018-05-13T00:50:29.198Z,97989
2018-05-13T00:52:57.261Z,97983
2018-05-13T00:55:25.333Z,97983
2018-05-13T00:57:53.737Z,97976
2018-05-13T01:00:21.783Z,97972
2018-05-13T01:02:49.943Z,97972
2018-05-13T01:05:18.446Z,97969
2018-05-13T01:07:46.488Z,97960
2018-05-13T01:10:14.573Z,97951
2018-05-13T01:12:43.144Z,97952
2018-05-13T01:15:11.229Z,97944
2018-05-13T01:17:39.317Z,97943
2018-05-13T01:20:07.410Z,97948
2018-05-13T01:22:36.235Z,97965
2018-05-13T01:25:04.329Z,97972
2018-05-13T01:27:32.714Z,97982
2018-05-13T01:30:00.964Z,98002
2018-05-13T01:32:29.057Z,98006
2018-05-13T01:34:57.473Z,98008
2018-05-13T01:37:26.329Z,98005
2018-05-13T01:39:54.397Z,98011
2018-05-13T01:42:22.653Z,98020
2018-05-13T01:44:50.721Z,98017
2018-05-13T01:47:18.797Z,98020
2018-05-13T01:49:46.869Z,98029
2018-05-13T01:52:14.948Z,98032
2018-05-13T01:54:43.237Z,98033
2018-05-13T01:57:11.332Z,98037
2018-05-13T01:59:40.205Z,98040
2018-05-13T02:02:08.301Z,98045
2018-05-13T02:04:37.960Z,98046
2018-05-13T02:07:06.082Z,98057
2018-05-13T02:09:34.153Z,98058
2018-05-13T02:12:02.500Z,98058
2018-05-13T02:14:30.601Z,98056
2018-05-13T02:16:58.649Z,98060
2018-05-13T02:19:26.716Z,98058
2018-05-13T02:21:54.773Z,98063
2018-05-13T02:24:22.857Z,98061
2018-05-13T02:26:51.149Z,98066
2018-05-13T02:29:19.328Z,98071
2018-05-13T02:31:47.414Z,98074
2018-05-13T02:34:15.533Z,98077
2018-05-13T02:36:43.605Z,98083
2018-05-13T02:39:11.668Z,98081
2018-05-13T02:41:40.065Z,98088
2018-05-13T02:44:08.137Z,98083
2018-05-13T02:46:36.217Z,98079
2018-05-13T02:49:04.317Z,98077
2018-05-13T02:51:32.397Z,98078
2018-05-13T02:54:01.357Z,98072
2018-05-13T02:56:29.730Z,98064
2018-05-13T02:58:57.822Z,98052
2018-05-13T03:01:25.914Z,98025
2018-05-13T03:03:55.285Z,97997
2018-05-13T03:06:23.461Z,97978
2018-05-13T03:08:51.548Z,97951
2018-05-13T03:11:20.131Z,97930
2018-05-13T03:13:48.729Z,97909
2018-05-13T03:16:16.854Z,97916
2018-05-13T03:18:44.940Z,97961
2018-05-13T03:21:13.108Z,97974
2018-05-13T03:23:41.220Z,97980
2018-05-13T03:26:10.113Z,97986
2018-05-13T03:28:38.967Z,97991
2018-05-13T03:31:07.040Z,98002
2018-05-13T03:33:35.417Z,98003
2018-05-13T03:36:05.009Z,98004
2018-05-13T03:38:33.130Z,98011
2018-05-13T03:41:01.218Z,98012
2018-05-13T03:43:30.290Z,98017
2018-05-13T03:45:59.869Z,98009
2018-05-13T03:48:27.957Z,98012
2018-05-13T03:50:56.011Z,98014
2018-05-13T03:53:24.072Z,98015
2018-05-13T03:55:53.613Z,98023
2018-05-13T03:58:21.705Z,98030
2018-05-13T04:00:50.793Z,98026
2018-05-13T04:03:19.928Z,98029
2018-05-13T04:05:47.993Z,98034
2018-05-13T04:08:16.993Z,98036
2018-05-13T04:10:45.085Z,98038
2018-05-13T04:13:13.165Z,98037
2018-05-13T04:15:41.257Z,98033
2018-05-13T04:18:09.505Z,98030
2018-05-13T04:20:37.597Z,98035
2018-05-13T04:23:05.677Z,98033
2018-05-13T04:25:33.748Z,98029
2018-05-13T04:28:02.626Z,98028
2018-05-13T04:30:30.681Z,98027
2018-05-13T04:32:59.205Z,98041
2018-05-13T04:35:28.152Z,98043
2018-05-13T04:37:56.257Z,98041
2018-05-13T04:40:25.428Z,98042
2018-05-13T04:42:53.495Z,98044
2018-05-13T04:45:21.572Z,98043
2018-05-13T04:47:49.661Z,98037
2018-05-13T04:50:17.733Z,98032
2018-05-13T04:52:45.813Z,98035
2018-05-13T04:55:13.936Z,98037
2018-05-13T04:57:42.065Z,98034
2018-05-13T05:00:10.923Z,98032
2018-05-13T05:02:39.292Z,98040
2018-05-13T05:05:07.352Z,98037
2018-05-13T05:07:35.440Z,98029
2018-05-13T05:10:03.729Z,98025
2018-05-13T05:12:31.786Z,98016
2018-05-13T05:14:59.873Z,98020
2018-05-13T05:17:28.254Z,98013
2018-05-13T05:19:56.337Z,98022
2018-05-13T05:22:24.453Z,98032
2018-05-13T05:24:52.783Z,98040
2018-05-13T05:27:20.855Z,98047
2018-05-13T05:29:48.926Z,98050
2018-05-13T05:32:17.818Z,98048
2018-05-13T05:34:45.886Z,98048
2018-05-13T05:37:13.962Z,98049
2018-05-13T05:39:42.049Z,98049
2018-05-13T05:42:10.894Z,98056
2018-05-13T05:44:39.057Z,98065
2018-05-13T05:47:07.172Z,98074
2018-05-13T05:49:36.011Z,98080
2018-05-13T05:52:04.101Z,98075
2018-05-13T05:54:32.372Z,98074
2018-05-13T05:57:00.467Z,98071
2018-05-13T05:59:28.903Z,98073
2018-05-13T06:01:57.617Z,98065
2018-05-13T06:04:25.708Z,98066
2018-05-13T06:06:53.782Z,98063
2018-05-13T06:09:22.154Z,98064
2018-05-13T06:11:50.208Z,98069
2018-05-13T06:14:18.322Z,98070
2018-05-13T06:16:47.394Z,98074
2018-05-13T06:19:15.445Z,98081
2018-05-13T06:21:43.621Z,98082
2018-05-13T06:24:11.721Z,98090
2018-05-13T06:26:39.813Z,98089
2018-05-13T06:29:07.893Z,98087
2018-05-13T06:31:36.013Z,98094
2018-05-13T06:34:04.265Z,98090
2018-05-13T06:36:32.341Z,98090
2018-05-13T06:39:00.929Z,98089
2018-05-13T06:41:29.041Z,98080
2018-05-13T06:43:57.113Z,98080
2018-05-13T06:46:25.288Z,98099
2018-05-13T06:48:53.333Z,98110
2018-05-13T06:51:21.463Z,98120
2018-05-13T06:53:49.765Z,98144
2018-05-13T06:56:17.848Z,98148
2018-05-13T06:58:45.945Z,98144
2018-05-13T07:01:14.317Z,98133
2018-05-13T07:03:42.368Z,98132
2018-05-13T07:06:10.428Z,98127
2018-05-13T07:08:38.801Z,98121
2018-05-13T07:11:06.967Z,98129
2018-05-13T07:13:35.065Z,98137
2018-05-13T07:16:03.160Z,98147
2018-05-13T07:18:31.244Z,98146
2018-05-13T07:21:00.126Z,98142
2018-05-13T07:23:28.493Z,98141
2018-05-13T07:25:56.548Z,98150
2018-05-13T07:28:24.651Z,98154
2018-05-13T07:30:52.733Z,98138
2018-05-13T07:33:21.563Z,98124
2018-05-13T07:35:50.098Z,98132
2018-05-13T07:38:18.999Z,98140
2018-05-13T07:40:47.845Z,98132
2018-05-13T07:43:15.910Z,98135
2018-05-13T07:45:44.192Z,98136
2018-05-13T07:48:12.282Z,98145
2018-05-13T07:50:40.353Z,98147
2018-05-13T07:53:08.465Z,98138
2018-05-13T07:55:36.567Z,98129
2018-05-13T07:58:05.561Z,98129
2018-05-13T08:00:33.649Z,98128
2018-05-13T08:03:01.714Z,98128
2018-05-13T08:05:30.084Z,98136
2018-05-13T08:07:58.210Z,98136
2018-05-13T08:10:27.060Z,98141
2018-05-13T08:12:55.171Z,98152
2018-05-13T08:15:24.028Z,98147
2018-05-13T08:17:52.090Z,98152
2018-05-13T08:20:20.658Z,98150
2018-05-13T08:22:50.262Z,98149
2018-05-13T08:25:19.192Z,98149
2018-05-13T08:27:47.289Z,98141
2018-05-13T08:30:16.122Z,98138
2018-05-13T08:32:44.195Z,98147
2018-05-13T08:35:12.665Z,98145
2018-05-13T08:37:40.757Z,98144
2018-05-13T08:40:08.848Z,98139
2018-05-13T08:42:37.848Z,98127
2018-05-13T08:45:05.900Z,98123
2018-05-13T08:47:33.965Z,98115
2018-05-13T08:50:02.429Z,98118
2018-05-13T08:52:31.287Z,98124
2018-05-13T08:54:59.385Z,98124
2018-05-13T08:57:27.816Z,98124
2018-05-13T08:59:55.877Z,98121
2018-05-13T09:02:24.315Z,98114
2018-05-13T09:04:52.818Z,98116
2018-05-13T09:07:21.509Z,98116
2018-05-13T09:09:49.582Z,98117
2018-05-13T09:12:17.705Z,98116
2018-05-13T09:14:47.276Z,98113
2018-05-13T09:17:15.406Z,98113
2018-05-13T09:19:43.489Z,98109
2018-05-13T09:22:11.561Z,98106
2018-05-13T09:24:39.653Z,98103
2018-05-13T09:27:08.257Z,98101
2018-05-13T09:29:36.389Z,98105
2018-05-13T09:32:05.308Z,98108
2018-05-13T09:34:33.393Z,98100
2018-05-13T09:37:01.473Z,98099
2018-05-13T09:39:30.416Z,98093
2018-05-13T09:41:59.192Z,98091
2018-05-13T09:44:27.801Z,98087
2018-05-13T09:46:56.046Z,98084
2018-05-13T09:49:24.153Z,98089
2018-05-13T09:51:52.237Z,98082
2018-05-13T09:54:20.829Z,98081
2018-05-13T09:56:49.049Z,98084
2018-05-13T09:59:17.129Z,98087
2018-05-13T10:01:45.560Z,98085
2018-05-13T10:04:14.431Z,98085
2018-05-13T10:06:42.517Z,98086
2018-05-13T10:09:10.587Z,98090
2018-05-13T10:11:38.629Z,98086
2018-05-13T10:14:06.717Z,98092
2018-05-13T10:16:35.775Z,98095
2018-05-13T10:19:04.618Z,98092
2018-05-13T10:21:33.478Z,98093
2018-05-13T10:24:01.891Z,98092
2018-05-13T10:26:30.755Z,98094
2018-05-13T10:28:58.840Z,98093
2018-05-13T10:31:27.213Z,98097
2018-05-13T10:33:55.410Z,98099
2018-05-13T10:36:24.266Z,98097
2018-05-13T10:38:53.665Z,98101
2018-05-13T10:41:21.779Z,98104
2018-05-13T10:43:50.601Z,98101
2018-05-13T10:46:19.057Z,98101
2018-05-13T10:48:47.890Z,98096
2018-05-13T10:51:15.956Z,98082
2018-05-13T10:53:44.337Z,98078
2018-05-13T10:56:12.405Z,98085
2018-05-13T10:58:40.518Z,98085
2018-05-13T11:01:08.882Z,98082
2018-05-13T11:03:36.958Z,98078
2018-05-13T11:06:05.036Z,98078
2018-05-13T11:08:34.236Z,98074
2018-05-13T11:11:02.309Z,98082
2018-05-13T11:13:31.813Z,98089
2018-05-13T11:16:00.689Z,98093
2018-05-13T11:18:28.744Z,98094
2018-05-13T11:20:58.341Z,98094
2018-05-13T11:23:26.937Z,98093
2018-05-13T11:25:55.043Z,98095
2018-05-13T11:28:23.896Z,98098
2018-05-13T11:30:52.280Z,98096
2018-05-13T11:33:20.336Z,98101
2018-05-13T11:35:48.757Z,98108
2018-05-13T11:38:16.891Z,98111
2018-05-13T11:40:45.001Z,98105
2018-05-13T11:43:13.892Z,98104
2018-05-13T11:45:43.690Z,98105
2018-05-13T11:48:11.773Z,98098
2018-05-13T11:50:39.836Z,98092
2018-05-13T11:53:07.901Z,98095
2018-05-13T11:55:35.991Z,98095
2018-05-13T11:58:04.865Z,98094
2018-05-13T12:00:33.320Z,98088
2018-05-13T12:03:01.421Z,98096
2018-05-13T12:05:29.476Z,98097
2018-05-13T12:07:57.840Z,98095
2018-05-13T12:10:25.917Z,98100
2018-05-13T12:12:54.035Z,98098
2018-05-13T12:15:22.901Z,98096
2018-05-13T12:17:51.972Z,98093
2018-05-13T12:20:20.046Z,98091
2018-05-13T12:22:48.236Z,98084
2018-05-13T12:25:16.487Z,98078
2018-05-13T12:27:44.569Z,98079
2018-05-13T12:30:13.205Z,98077
2018-05-13T12:32:42.086Z,98075
2018-05-13T12:35:10.978Z,98078
2018-05-13T12:37:39.932Z,98077
2018-05-13T12:40:08.034Z,98081
2018-05-13T12:42:36.092Z,98083
2018-05-13T12:45:04.165Z,98083
2018-05-13T12:47:32.253Z,98083
2018-05-13T12:50:01.137Z,98083
2018-05-13T12:52:29.517Z,98082
2018-05-13T12:54:57.585Z,98079
2018-05-13T12:57:25.649Z,98077
2018-05-13T12:59:54.013Z,98079
2018-05-13T13:02:22.159Z,98081
2018-05-13T13:04:50.184Z,98078
2018-05-13T13:07:18.269Z,98081
2018-05-13T13:09:47.121Z,98078
2018-05-13T13:12:15.192Z,98077
2018-05-13T13:14:43.797Z,98074
2018-05-13T13:17:11.844Z,98073
2018-05-13T13:19:39.910Z,98071
2018-05-13T13:22:08.064Z,98064
2018-05-13T13:24:37.073Z,98059
2018-05-13T13:27:05.998Z,98058
2018-05-13T13:29:34.833Z,98054
2018-05-13T13:32:02.935Z,98045
2018-05-13T13:34:31.306Z,98041
2018-05-13T13:36:59.382Z,98038
2018-05-13T13:39:27.481Z,98037
2018-05-13T13:41:55.856Z,98041
2018-05-13T13:44:23.932Z,98042
2018-05-13T13:46:52.809Z,98040
2018-05-13T13:49:20.880Z,98029
2018-05-13T13:51:49.123Z,98031
2018-05-13T13:54:17.225Z,98025
2018-05-13T13:56:45.604Z,98017
2018-05-13T13:59:13.672Z,98014
2018-05-13T14:01:41.742Z,98012
2018-05-13T14:04:10.097Z,98010
2018-05-13T14:06:38.213Z,98009
2018-05-13T14:09:07.088Z,98007
2018-05-13T14:11:35.577Z,98007
2018-05-13T14:14:03.644Z,97995
2018-05-13T14:16:31.880Z,97990
2018-05-13T14:19:00.270Z,97986
2018-05-13T14:21:28.366Z,97979
2018-05-13T14:23:56.532Z,97981
2018-05-13T14:26:24.518Z,97985
2018-05-13T14:28:52.692Z,97988
2018-05-13T14:31:21.585Z,97987
2018-05-13T14:33:49.661Z,97991
2018-05-13T14:36:17.776Z,97991
2018-05-13T14:38:45.852Z,97993
2018-05-13T14:41:14.093Z,97988
2018-05-13T14:43:42.119Z,97985
2018-05-13T14:46:10.225Z,97985
2018-05-13T14:48:39.056Z,97982
2018-05-13T14:51:07.144Z,97979
2018-05-13T14:53:35.973Z,97979
2018-05-13T14:56:04.041Z,97970
2018-05-13T14:58:32.140Z,97974
2018-05-13T15:01:00.236Z,97974
2018-05-13T15:03:28.329Z,97964
2018-05-13T15:05:56.389Z,97963
2018-05-13T15:08:24.764Z,97964
2018-05-13T15:10:52.891Z,97959
2018-05-13T15:13:21.776Z,97960
2018-05-13T15:15:51.030Z,97958
2018-05-13T15:18:19.101Z,97964
2018-05-13T15:20:47.215Z,97965
2018-05-13T15:23:16.064Z,97965
2018-05-13T15:25:44.141Z,97965
2018-05-13T15:28:12.204Z,97960
2018-05-13T15:30:40.318Z,97961
2018-05-13T15:33:08.382Z,97961
2018-05-13T15:35:36.455Z,97956
2018-05-13T15:38:05.236Z,97956
2018-05-13T15:40:33.295Z,97953
2018-05-13T15:43:01.715Z,97948
2018-05-13T15:45:30.686Z,97946
2018-05-13T15:47:58.733Z,97941
2018-05-13T15:50:26.792Z,97937
2018-05-13T15:52:54.904Z,97935
2018-05-13T15:55:23.545Z,97937
2018-05-13T15:57:51.634Z,97938
2018-05-13T16:00:20.001Z,97945
2018-05-13T16:02:48.119Z,97942
2018-05-13T16:05:16.977Z,97938
2018-05-13T16:07:45.440Z,97937
2018-05-13T16:10:13.513Z,97929
2018-05-13T16:12:41.631Z,97925
2018-05-13T16:15:10.901Z,97931
2018-05-13T16:17:39.788Z,97924
2018-05-13T16:20:07.890Z,97919
2018-05-13T16:22:36.783Z,97919
2018-05-13T16:25:05.157Z,97922
2018-05-13T16:27:33.235Z,97918
2018-05-13T16:30:02.228Z,97928
2018-05-13T16:32:31.631Z,97922
2018-05-13T16:35:00.473Z,97922
2018-05-13T16:37:28.581Z,97924
2018-05-13T16:39:56.841Z,97928
2018-05-13T16:42:24.941Z,97930
2018-05-13T16:44:53.000Z,97935
2018-05-13T16:47:21.105Z,97930
2018-05-13T16:49:49.571Z,97931
2018-05-13T16:52:18.467Z,97930
2018-05-13T16:54:46.538Z,97934
2018-05-13T16:57:16.244Z,97935
2018-05-13T16:59:45.140Z,97938
2018-05-13T17:02:14.026Z,97941
2018-05-13T17:04:42.904Z,97944
2018-05-13T17:07:10.957Z,97945
2018-05-13T17:09:39.101Z,97942
2018-05-13T17:12:07.425Z,97946
2018-05-13T17:14:36.280Z,97944
2018-05-13T17:17:04.393Z,97944
2018-05-13T17:19:32.456Z,97944
2018-05-13T17:22:01.572Z,97942
2018-05-13T17:24:30.401Z,97944
2018-05-13T17:26:58.534Z,97945
2018-05-13T17:29:27.440Z,97938
2018-05-13T17:31:56.301Z,97933
2018-05-13T17:34:25.382Z,97931
2018-05-13T17:36:53.473Z,97929
2018-05-13T17:39:22.403Z,97925
2018-05-13T17:41:50.600Z,97926
2018-05-13T17:44:18.754Z,97923
2018-05-13T17:46:47.081Z,97928
2018-05-13T17:49:15.153Z,97925
2018-05-13T17:51:44.013Z,97920
2018-05-13T17:54:12.113Z,97922
2018-05-13T17:56:40.214Z,97919
2018-05-13T17:59:08.340Z,97925
2018-05-13T18:01:36.463Z,97928
2018-05-13T18:04:04.809Z,97922
2018-05-13T18:06:32.874Z,97918
2018-05-13T18:09:00.949Z,97921
2018-05-13T18:11:29.510Z,97911
2018-05-13T18:13:57.607Z,97915
2018-05-13T18:16:25.669Z,97924
2018-05-13T18:18:53.792Z,97926
2018-05-13T18:21:21.873Z,97920
2018-05-13T18:23:49.945Z,97926
2018-05-13T18:26:18.053Z,97930
2018-05-13T18:28:46.129Z,97928
2018-05-13T18:31:14.221Z,97927
2018-05-13T18:33:43.169Z,97930
2018-05-13T18:36:11.261Z,97927
2018-05-13T18:38:39.319Z,97926
2018-05-13T18:41:07.433Z,97926
2018-05-13T18:43:36.272Z,97927
2018-05-13T18:46:04.377Z,97927
2018-05-13T18:48:34.203Z,97928
2018-05-13T18:51:03.061Z,97936
2018-05-13T18:53:31.117Z,97939
2018-05-13T18:55:59.197Z,97943
2018-05-13T18:58:27.298Z,97942
2018-05-13T19:00:56.344Z,97945
2018-05-13T19:03:24.425Z,97946
2018-05-13T19:05:52.533Z,97948
2018-05-13T19:08:21.401Z,97944
2018-05-13T19:10:49.696Z,97949
2018-05-13T19:13:17.744Z,97946
2018-05-13T19:15:45.809Z,97946
2018-05-13T19:18:14.184Z,97940
2018-05-13T19:20:42.279Z,97939
2018-05-13T19:23:10.362Z,97939
2018-05-13T19:25:38.626Z,97932
2018-05-13T19:28:06.681Z,97939
2018-05-13T19:30:34.753Z,97936
2018-05-13T19:33:03.228Z,97946
2018-05-13T19:35:31.341Z,97942
2018-05-13T19:38:00.240Z,97945
2018-05-13T19:40:29.133Z,97948
2018-05-13T19:42:58.016Z,97951
2018-05-13T19:45:26.084Z,97951
2018-05-13T19:47:54.964Z,97952
2018-05-13T19:50:23.108Z,97948
2018-05-13T19:52:51.785Z,97947
2018-05-13T19:55:19.856Z,97942
2018-05-13T19:57:47.943Z,97936
2018-05-13T20:00:17.473Z,97938
2018-05-13T20:02:45.553Z,97944
2018-05-13T20:05:13.617Z,97942
2018-05-13T20:07:41.706Z,97947
2018-05-13T20:10:10.553Z,97944
2018-05-13T20:12:38.628Z,97942
2018-05-13T20:15:07.018Z,97938
2018-05-13T20:17:35.109Z,97939
2018-05-13T20:20:03.969Z,97940
2018-05-13T20:22:32.317Z,97936
2018-05-13T20:25:00.425Z,97937
2018-05-13T20:27:28.514Z,97938
2018-05-13T20:29:58.697Z,97935
2018-05-13T20:32:26.781Z,97936
2018-05-13T20:34:54.877Z,97930
2018-05-13T20:37:22.940Z,97923
2018-05-13T20:39:51.033Z,97925
2018-05-13T20:42:19.898Z,97924
2018-05-13T20:44:47.973Z,97918
2018-05-13T20:47:16.715Z,97920
2018-05-13T20:49:44.841Z,97923
2018-05-13T20:52:12.884Z,97920
2018-05-13T20:54:40.959Z,97913
2018-05-13T20:57:09.029Z,97913
2018-05-13T20:59:37.129Z,97917
2018-05-13T21:02:05.981Z,97918
2018-05-13T21:04:34.092Z,97919
2018-05-13T21:07:02.173Z,97912
2018-05-13T21:09:30.277Z,97906
2018-05-13T21:11:58.453Z,97899
2018-05-13T21:14:26.544Z,97896
2018-05-13T21:16:54.616Z,97888
2018-05-13T21:19:22.709Z,97883
2018-05-13T21:21:50.764Z,97877
2018-05-13T21:24:18.841Z,97876
2018-05-13T21:26:46.916Z,97878
2018-05-13T21:29:15.732Z,97870
2018-05-13T21:31:45.140Z,97871
2018-05-13T21:34:14.025Z,97869
2018-05-13T21:36:42.989Z,97865
2018-05-13T21:39:11.097Z,97863
2018-05-13T21:41:39.979Z,97866
2018-05-13T21:44:08.038Z,97866
2018-05-13T21:46:36.136Z,97867
2018-05-13T21:49:04.365Z,97865
2018-05-13T21:51:33.386Z,97859
2018-05-13T21:54:01.483Z,97860
2018-05-13T21:56:30.345Z,97856
2018-05-13T21:58:58.406Z,97855
2018-05-13T22:01:27.203Z,97856
2018-05-13T22:03:55.281Z,97858
2018-05-13T22:06:23.348Z,97863
2018-05-13T22:08:52.243Z,97866
2018-05-13T22:11:21.625Z,97873
2018-05-13T22:13:49.713Z,97866
2018-05-13T22:16:18.448Z,97868
2018-05-13T22:18:46.553Z,97868
2018-05-13T22:21:14.691Z,97869
2018-05-13T22:23:43.098Z,97874
2018-05-13T22:26:11.401Z,97879
2018-05-13T22:28:39.466Z,97885
2018-05-13T22:31:07.849Z,97883
2018-05-13T22:33:35.934Z,97882
2018-05-13T22:36:04.791Z,97885
2018-05-13T22:38:33.077Z,97891
2018-05-13T22:41:01.139Z,97893
2018-05-13T22:43:29.233Z,97893
2018-05-13T22:45:57.321Z,97901
2018-05-13T22:48:26.173Z,97902
2018-05-13T22:50:54.473Z,97896
2018-05-13T22:53:23.669Z,97898
2018-05-13T22:55:51.790Z,97898
2018-05-13T22:58:19.961Z,97895
2018-05-13T23:00:48.251Z,97879
2018-05-13T23:03:16.326Z,97872
2018-05-13T23:05:44.396Z,97872
2018-05-13T23:08:12.833Z,97858
2018-05-13T23:10:41.677Z,97845
2018-05-13T23:13:09.733Z,97834
2018-05-13T23:15:38.200Z,97828
2018-05-13T23:18:06.240Z,97842
2018-05-13T23:20:34.296Z,97850
2018-05-13T23:23:03.360Z,97852
2018-05-13T23:25:31.423Z,97851
2018-05-13T23:27:59.533Z,97852
2018-05-13T23:30:27.680Z,97850
2018-05-13T23:32:55.728Z,97844
2018-05-13T23:35:23.813Z,97850
2018-05-13T23:37:52.229Z,97848
2018-05-13T23:40:20.276Z,97845
2018-05-13T23:42:48.352Z,97844
2018-05-13T23:45:16.763Z,97839
2018-05-13T23:47:45.617Z,97844
2018-05-13T23:50:13.715Z,97850
2018-05-13T23:52:41.992Z,97843
2018-05-13T23:55:10.285Z,97844
2018-05-13T23:57:39.134Z,97842
